Time;durP1;ratioP1;P1;durP2;ratioP2;P2;SDS_P1;SDS_P2;PMS_P1;PMS_P2;Temp;Humidity;BMP_temperature;BMP_pressure;BME280_temperature;BME280_humidity;BME280_pressure;Samples;Min_cycle;Max_cycle;Signal;HPM_P1;HPM_P2
2022/07/11 00:01:23;;;;;;;2.8;1.8;;;;;;;;;;;;;
2022/07/11 00:03:48;;;;;;;2.8;1.6;;;;;;;;;;;;;
2022/07/11 00:06:13;;;;;;;1.6;1.3;;;;;;;;;;;;;
2022/07/11 00:08:38;;;;;;;2.3;1.7;;;;;;;;;;;;;
2022/07/11 00:11:04;;;;;;;3.2;1.5;;;;;;;;;;;;;
2022/07/11 00:13:29;;;;;;;2.6;1.7;;;;;;;;;;;;;
2022/07/11 00:15:57;;;;;;;3.1;1.7;;;;;;;;;;;;;
2022/07/11 00:18:23;;;;;;;2.3;1.4;;;;;;;;;;;;;
2022/07/11 00:20:48;;;;;;;2.9;1.3;;;;;;;;;;;;;
2022/07/11 00:23:13;;;;;;;1.9;1.2;;;;;;;;;;;;;
2022/07/11 00:25:39;;;;;;;2.6;1.5;;;;;;;;;;;;;
2022/07/11 00:28:04;;;;;;;2.1;1.3;;;;;;;;;;;;;
2022/07/11 00:30:30;;;;;;;3.1;1.8;;;;;;;;;;;;;
2022/07/11 00:32:55;;;;;;;2.2;1.4;;;;;;;;;;;;;
2022/07/11 00:35:21;;;;;;;1.7;1.3;;;;;;;;;;;;;
2022/07/11 00:37:46;;;;;;;2.1;1.1;;;;;;;;;;;;;
2022/07/11 00:40:17;;;;;;;1.9;1.4;;;;;;;;;;;;;
2022/07/11 00:42:43;;;;;;;1.7;1;;;;;;;;;;;;;
2022/07/11 00:45:09;;;;;;;2.6;1.2;;;;;;;;;;;;;
2022/07/11 00:47:36;;;;;;;1.5;0.9;;;;;;;;;;;;;
2022/07/11 00:50:02;;;;;;;2;1.1;;;;;;;;;;;;;
2022/07/11 00:52:27;;;;;;;1.9;1.5;;;;;;;;;;;;;
2022/07/11 00:54:52;;;;;;;2.6;1.2;;;;;;;;;;;;;
2022/07/11 00:57:17;;;;;;;1.9;1.1;;;;;;;;;;;;;
2022/07/11 00:59:42;;;;;;;4.3;1.1;;;;;;;;;;;;;
2022/07/11 01:02:09;;;;;;;3.3;1.3;;;;;;;;;;;;;
2022/07/11 01:04:34;;;;;;;3.3;1.4;;;;;;;;;;;;;
2022/07/11 01:06:59;;;;;;;3.2;1.6;;;;;;;;;;;;;
2022/07/11 01:09:24;;;;;;;1.9;1.4;;;;;;;;;;;;;
2022/07/11 01:11:51;;;;;;;2;1.3;;;;;;;;;;;;;
2022/07/11 01:14:16;;;;;;;2.1;1.5;;;;;;;;;;;;;
2022/07/11 01:16:42;;;;;;;2.6;1.1;;;;;;;;;;;;;
2022/07/11 01:19:08;;;;;;;1.3;1.2;;;;;;;;;;;;;
2022/07/11 01:21:33;;;;;;;1.6;1.1;;;;;;;;;;;;;
2022/07/11 01:23:59;;;;;;;2.6;1.2;;;;;;;;;;;;;
2022/07/11 01:26:24;;;;;;;2.2;1.4;;;;;;;;;;;;;
2022/07/11 01:28:49;;;;;;;2.6;1.2;;;;;;;;;;;;;
2022/07/11 01:31:16;;;;;;;1.8;1.3;;;;;;;;;;;;;
2022/07/11 01:33:41;;;;;;;4.1;1.2;;;;;;;;;;;;;
2022/07/11 01:36:07;;;;;;;2.5;1.2;;;;;;;;;;;;;
2022/07/11 01:38:32;;;;;;;1.6;1.3;;;;;;;;;;;;;
2022/07/11 01:40:58;;;;;;;3.8;1.4;;;;;;;;;;;;;
2022/07/11 01:43:23;;;;;;;3.7;1.3;;;;;;;;;;;;;
2022/07/11 01:45:49;;;;;;;2.9;1.7;;;;;;;;;;;;;
2022/07/11 01:48:14;;;;;;;1.5;1.2;;;;;;;;;;;;;
2022/07/11 01:50:40;;;;;;;2.8;1.2;;;;;;;;;;;;;
2022/07/11 01:53:05;;;;;;;1.9;1.3;;;;;;;;;;;;;
2022/07/11 01:55:31;;;;;;;2.6;1.2;;;;;;;;;;;;;
2022/07/11 01:57:56;;;;;;;3.4;1.5;;;;;;;;;;;;;
2022/07/11 02:00:22;;;;;;;2.1;1.5;;;;;;;;;;;;;
2022/07/11 02:02:47;;;;;;;1.6;1.3;;;;;;;;;;;;;
2022/07/11 02:05:16;;;;;;;2.7;1.4;;;;;;;;;;;;;
2022/07/11 02:10:07;;;;;;;3.2;1.7;;;;;;;;;;;;;
2022/07/11 02:12:32;;;;;;;1.9;1.1;;;;;;;;;;;;;
2022/07/11 02:14:57;;;;;;;2.2;1.4;;;;;;;;;;;;;
2022/07/11 02:17:22;;;;;;;2.4;1.3;;;;;;;;;;;;;
2022/07/11 02:19:47;;;;;;;4.6;1.4;;;;;;;;;;;;;
2022/07/11 02:22:15;;;;;;;2.5;1.4;;;;;;;;;;;;;
2022/07/11 02:24:39;;;;;;;3.5;1.5;;;;;;;;;;;;;
2022/07/11 02:27:04;;;;;;;2.5;1.2;;;;;;;;;;;;;
2022/07/11 02:29:31;;;;;;;2.3;1.6;;;;;;;;;;;;;
2022/07/11 02:31:55;;;;;;;1.6;1.2;;;;;;;;;;;;;
2022/07/11 02:34:21;;;;;;;1.6;1.4;;;;;;;;;;;;;
2022/07/11 02:36:47;;;;;;;2.1;1.5;;;;;;;;;;;;;
2022/07/11 02:39:13;;;;;;;1.9;1.4;;;;;;;;;;;;;
2022/07/11 02:41:39;;;;;;;1.5;1.2;;;;;;;;;;;;;
2022/07/11 02:44:04;;;;;;;2.2;1.3;;;;;;;;;;;;;
2022/07/11 02:46:30;;;;;;;1.8;1.3;;;;;;;;;;;;;
2022/07/11 02:48:56;;;;;;;1.7;1.3;;;;;;;;;;;;;
2022/07/11 02:51:21;;;;;;;2.6;1.6;;;;;;;;;;;;;
2022/07/11 02:53:46;;;;;;;3.1;1.4;;;;;;;;;;;;;
2022/07/11 02:56:13;;;;;;;2.8;1.5;;;;;;;;;;;;;
2022/07/11 02:58:37;;;;;;;1.8;1.3;;;;;;;;;;;;;
2022/07/11 03:01:02;;;;;;;4.1;1.6;;;;;;;;;;;;;
2022/07/11 03:03:29;;;;;;;2.1;1.6;;;;;;;;;;;;;
2022/07/11 03:05:54;;;;;;;3.6;1.7;;;;;;;;;;;;;
2022/07/11 03:08:20;;;;;;;1.6;1.3;;;;;;;;;;;;;
2022/07/11 03:10:45;;;;;;;3.2;2;;;;;;;;;;;;;
2022/07/11 03:13:10;;;;;;;2.1;1.8;;;;;;;;;;;;;
2022/07/11 03:15:35;;;;;;;3.3;2;;;;;;;;;;;;;
2022/07/11 03:18:02;;;;;;;3.9;2;;;;;;;;;;;;;
2022/07/11 03:20:27;;;;;;;3.9;1.5;;;;;;;;;;;;;
2022/07/11 03:22:53;;;;;;;2.7;1.7;;;;;;;;;;;;;
2022/07/11 03:25:18;;;;;;;2.2;1.7;;;;;;;;;;;;;
2022/07/11 03:27:44;;;;;;;1.6;1.5;;;;;;;;;;;;;
2022/07/11 03:30:10;;;;;;;2.7;1.9;;;;;;;;;;;;;
2022/07/11 03:32:36;;;;;;;2.4;1.5;;;;;;;;;;;;;
2022/07/11 03:36:02;;;;;;;1.4;1.3;;;;;;;;;;;;;
2022/07/11 03:37:29;;;;;;;2.2;1.7;;;;;;;;;;;;;
2022/07/11 03:39:54;;;;;;;1.7;1.5;;;;;;;;;;;;;
2022/07/11 03:42:20;;;;;;;3.2;1.7;;;;;;;;;;;;;
2022/07/11 03:44:45;;;;;;;3.8;1.6;;;;;;;;;;;;;
2022/07/11 03:47:12;;;;;;;3.9;2;;;;;;;;;;;;;
2022/07/11 03:49:37;;;;;;;3;1.8;;;;;;;;;;;;;
2022/07/11 03:52:02;;;;;;;2.2;1.8;;;;;;;;;;;;;
2022/07/11 03:54:27;;;;;;;2.5;1.5;;;;;;;;;;;;;
2022/07/11 03:56:53;;;;;;;3.6;1.6;;;;;;;;;;;;;
2022/07/11 03:59:18;;;;;;;2.3;1.7;;;;;;;;;;;;;
2022/07/11 04:02:32;;;;;;;2.6;1.6;;;;;;;;;;;;;
2022/07/11 04:04:57;;;;;;;8.1;1.8;;;;;;;;;;;;;
2022/07/11 04:07:23;;;;;;;2.8;1.5;;;;;;;;;;;;;
2022/07/11 04:09:48;;;;;;;2.8;1.6;;;;;;;;;;;;;
2022/07/11 04:12:13;;;;;;;3.4;1.7;;;;;;;;;;;;;
2022/07/11 04:14:38;;;;;;;2.6;1.8;;;;;;;;;;;;;
2022/07/11 04:17:04;;;;;;;2.5;1.9;;;;;;;;;;;;;
2022/07/11 04:19:30;;;;;;;4.3;1.5;;;;;;;;;;;;;
2022/07/11 04:21:58;;;;;;;1.5;1.4;;;;;;;;;;;;;
2022/07/11 04:24:21;;;;;;;3.1;1.8;;;;;;;;;;;;;
2022/07/11 04:26:47;;;;;;;2.7;1.7;;;;;;;;;;;;;
2022/07/11 04:29:12;;;;;;;3.2;1.7;;;;;;;;;;;;;
2022/07/11 04:31:38;;;;;;;3;1.9;;;;;;;;;;;;;
2022/07/11 04:34:03;;;;;;;2.8;1.8;;;;;;;;;;;;;
2022/07/11 04:36:30;;;;;;;2.2;2;;;;;;;;;;;;;
2022/07/11 04:38:54;;;;;;;2.4;1.8;;;;;;;;;;;;;
2022/07/11 04:41:20;;;;;;;2.4;1.6;;;;;;;;;;;;;
2022/07/11 04:43:45;;;;;;;3.1;1.5;;;;;;;;;;;;;
2022/07/11 04:46:11;;;;;;;2.2;1.5;;;;;;;;;;;;;
2022/07/11 04:48:37;;;;;;;3.7;1.6;;;;;;;;;;;;;
2022/07/11 04:51:04;;;;;;;3.3;1.8;;;;;;;;;;;;;
2022/07/11 04:53:29;;;;;;;2;1.7;;;;;;;;;;;;;
2022/07/11 04:55:55;;;;;;;1.7;1.6;;;;;;;;;;;;;
2022/07/11 04:58:20;;;;;;;2.1;1.9;;;;;;;;;;;;;
2022/07/11 05:00:45;;;;;;;2.8;1.4;;;;;;;;;;;;;
2022/07/11 05:03:10;;;;;;;2.3;1.5;;;;;;;;;;;;;
2022/07/11 05:05:35;;;;;;;1.7;1.6;;;;;;;;;;;;;
2022/07/11 05:08:00;;;;;;;2;1.4;;;;;;;;;;;;;
2022/07/11 05:10:27;;;;;;;2;1.5;;;;;;;;;;;;;
2022/07/11 05:12:52;;;;;;;1.5;1.2;;;;;;;;;;;;;
2022/07/11 05:15:18;;;;;;;1.7;1.4;;;;;;;;;;;;;
2022/07/11 05:17:44;;;;;;;2.5;1.3;;;;;;;;;;;;;
2022/07/11 05:20:09;;;;;;;1.6;1;;;;;;;;;;;;;
2022/07/11 05:22:34;;;;;;;2.4;1.1;;;;;;;;;;;;;
2022/07/11 05:25:01;;;;;;;3.9;1.5;;;;;;;;;;;;;
2022/07/11 05:27:27;;;;;;;1.9;0.9;;;;;;;;;;;;;
2022/07/11 05:29:53;;;;;;;3.9;1;;;;;;;;;;;;;
2022/07/11 05:32:18;;;;;;;0.9;0.9;;;;;;;;;;;;;
2022/07/11 05:34:45;;;;;;;1.9;1.3;;;;;;;;;;;;;
2022/07/11 05:37:10;;;;;;;1.4;1;;;;;;;;;;;;;
2022/07/11 05:39:35;;;;;;;1.6;0.9;;;;;;;;;;;;;
2022/07/11 05:42:00;;;;;;;2.2;1.3;;;;;;;;;;;;;
2022/07/11 05:44:27;;;;;;;2.3;1.1;;;;;;;;;;;;;
2022/07/11 05:46:52;;;;;;;1.5;1.1;;;;;;;;;;;;;
2022/07/11 05:49:18;;;;;;;1.8;1.1;;;;;;;;;;;;;
2022/07/11 05:51:43;;;;;;;1.6;1.1;;;;;;;;;;;;;
2022/07/11 05:54:08;;;;;;;1.3;1.1;;;;;;;;;;;;;
2022/07/11 05:56:33;;;;;;;2.2;1.5;;;;;;;;;;;;;
2022/07/11 05:58:59;;;;;;;1.9;1.1;;;;;;;;;;;;;
2022/07/11 06:01:25;;;;;;;1.3;1;;;;;;;;;;;;;
2022/07/11 06:03:51;;;;;;;1.4;0.9;;;;;;;;;;;;;
2022/07/11 06:06:17;;;;;;;3.5;1.3;;;;;;;;;;;;;
2022/07/11 06:08:42;;;;;;;1.7;1.3;;;;;;;;;;;;;
2022/07/11 06:11:07;;;;;;;1.3;1.2;;;;;;;;;;;;;
2022/07/11 06:13:33;;;;;;;1.8;1.3;;;;;;;;;;;;;
2022/07/11 06:15:57;;;;;;;1.9;1.4;;;;;;;;;;;;;
2022/07/11 06:18:23;;;;;;;2.9;1.2;;;;;;;;;;;;;
2022/07/11 06:20:49;;;;;;;1.7;1.1;;;;;;;;;;;;;
2022/07/11 06:23:18;;;;;;;1.6;1;;;;;;;;;;;;;
2022/07/11 06:25:43;;;;;;;1.1;1;;;;;;;;;;;;;
2022/07/11 06:28:08;;;;;;;2.5;0.9;;;;;;;;;;;;;
2022/07/11 06:30:33;;;;;;;1.2;0.9;;;;;;;;;;;;;
2022/07/11 06:32:58;;;;;;;2.9;0.9;;;;;;;;;;;;;
2022/07/11 06:35:24;;;;;;;1.7;1;;;;;;;;;;;;;
2022/07/11 06:37:51;;;;;;;1.2;1.1;;;;;;;;;;;;;
2022/07/11 06:40:17;;;;;;;3;1;;;;;;;;;;;;;
2022/07/11 06:42:42;;;;;;;1.6;1.1;;;;;;;;;;;;;
2022/07/11 06:45:07;;;;;;;1.4;1;;;;;;;;;;;;;
2022/07/11 06:47:33;;;;;;;1.7;1;;;;;;;;;;;;;
2022/07/11 06:49:58;;;;;;;2.6;0.9;;;;;;;;;;;;;
2022/07/11 06:52:26;;;;;;;1.7;0.9;;;;;;;;;;;;;
2022/07/11 06:54:51;;;;;;;2.9;1;;;;;;;;;;;;;
2022/07/11 06:57:17;;;;;;;2.3;1.2;;;;;;;;;;;;;
2022/07/11 06:59:42;;;;;;;3.1;1;;;;;;;;;;;;;
2022/07/11 07:02:08;;;;;;;2.9;0.9;;;;;;;;;;;;;
2022/07/11 07:04:33;;;;;;;0.9;0.8;;;;;;;;;;;;;
2022/07/11 07:07:00;;;;;;;1.3;0.8;;;;;;;;;;;;;
2022/07/11 07:09:24;;;;;;;1.1;0.8;;;;;;;;;;;;;
2022/07/11 07:11:49;;;;;;;1.5;0.9;;;;;;;;;;;;;
2022/07/11 07:14:14;;;;;;;0.9;0.6;;;;;;;;;;;;;
2022/07/11 07:16:41;;;;;;;1.6;0.9;;;;;;;;;;;;;
2022/07/11 07:19:06;;;;;;;2.5;0.8;;;;;;;;;;;;;
2022/07/11 07:21:31;;;;;;;1.5;0.8;;;;;;;;;;;;;
2022/07/11 07:23:56;;;;;;;0.9;0.6;;;;;;;;;;;;;
2022/07/11 07:26:23;;;;;;;0.9;0.8;;;;;;;;;;;;;
2022/07/11 07:28:48;;;;;;;1;0.7;;;;;;;;;;;;;
2022/07/11 07:31:15;;;;;;;3.1;1;;;;;;;;;;;;;
2022/07/11 07:33:40;;;;;;;1.5;0.6;;;;;;;;;;;;;
2022/07/11 07:36:05;;;;;;;1.7;0.8;;;;;;;;;;;;;
2022/07/11 07:38:30;;;;;;;1.7;0.7;;;;;;;;;;;;;
2022/07/11 07:40:58;;;;;;;1.7;0.8;;;;;;;;;;;;;
2022/07/11 07:43:23;;;;;;;1.4;0.5;;;;;;;;;;;;;
2022/07/11 07:45:50;;;;;;;1.6;0.5;;;;;;;;;;;;;
2022/07/11 07:48:15;;;;;;;0.8;0.5;;;;;;;;;;;;;
2022/07/11 07:50:43;;;;;;;1.3;0.8;;;;;;;;;;;;;
2022/07/11 07:53:08;;;;;;;1.1;0.6;;;;;;;;;;;;;
2022/07/11 07:55:37;;;;;;;0.7;0.6;;;;;;;;;;;;;
2022/07/11 07:58:05;;;;;;;2.9;0.7;;;;;;;;;;;;;
2022/07/11 08:02:56;;;;;;;2.4;0.8;;;;;;;;;;;;;
2022/07/11 08:05:21;;;;;;;0.9;0.6;;;;;;;;;;;;;
2022/07/11 08:07:46;;;;;;;1.7;0.6;;;;;;;;;;;;;
2022/07/11 08:10:12;;;;;;;0.7;0.7;;;;;;;;;;;;;
2022/07/11 08:12:37;;;;;;;1.3;0.6;;;;;;;;;;;;;
2022/07/11 08:15:02;;;;;;;1.2;0.6;;;;;;;;;;;;;
2022/07/11 08:17:30;;;;;;;2.1;1;;;;;;;;;;;;;
2022/07/11 08:19:55;;;;;;;1.3;1;;;;;;;;;;;;;
2022/07/11 08:22:20;;;;;;;0.7;0.7;;;;;;;;;;;;;
2022/07/11 08:24:45;;;;;;;1.6;0.6;;;;;;;;;;;;;
2022/07/11 08:27:10;;;;;;;0.9;0.6;;;;;;;;;;;;;
2022/07/11 08:29:35;;;;;;;0.8;0.7;;;;;;;;;;;;;
2022/07/11 08:32:02;;;;;;;1.9;0.5;;;;;;;;;;;;;
2022/07/11 08:34:27;;;;;;;2.1;0.7;;;;;;;;;;;;;
2022/07/11 08:36:52;;;;;;;2.6;0.9;;;;;;;;;;;;;
2022/07/11 08:39:17;;;;;;;1.8;0.7;;;;;;;;;;;;;
2022/07/11 08:41:46;;;;;;;1.4;0.7;;;;;;;;;;;;;
2022/07/11 08:44:11;;;;;;;1;0.8;;;;;;;;;;;;;
2022/07/11 08:46:37;;;;;;;1;0.7;;;;;;;;;;;;;
2022/07/11 08:49:03;;;;;;;1.5;1.1;;;;;;;;;;;;;
2022/07/11 08:51:28;;;;;;;1.5;0.6;;;;;;;;;;;;;
2022/07/11 08:53:53;;;;;;;2.5;0.9;;;;;;;;;;;;;
2022/07/11 08:56:18;;;;;;;1.1;0.6;;;;;;;;;;;;;
2022/07/11 08:58:43;;;;;;;2.1;0.7;;;;;;;;;;;;;
2022/07/11 09:01:10;;;;;;;1.3;0.7;;;;;;;;;;;;;
2022/07/11 09:03:35;;;;;;;0.8;0.7;;;;;;;;;;;;;
2022/07/11 09:06:01;;;;;;;1.1;0.5;;;;;;;;;;;;;
2022/07/11 09:08:26;;;;;;;0.9;0.7;;;;;;;;;;;;;
2022/07/11 09:10:53;;;;;;;1.1;0.7;;;;;;;;;;;;;
2022/07/11 09:13:20;;;;;;;1;0.7;;;;;;;;;;;;;
2022/07/11 09:15:44;;;;;;;1.9;0.8;;;;;;;;;;;;;
2022/07/11 09:18:09;;;;;;;1.1;0.7;;;;;;;;;;;;;
2022/07/11 09:25:31;;;;;;;0.9;0.7;;;;;;;;;;;;;
2022/07/11 09:27:50;;;;;;;1.3;0.7;;;;;;;;;;;;;
2022/07/11 09:30:18;;;;;;;3.1;0.8;;;;;;;;;;;;;
2022/07/11 09:32:43;;;;;;;1.1;1;;;;;;;;;;;;;
2022/07/11 09:35:08;;;;;;;1.7;0.7;;;;;;;;;;;;;
2022/07/11 09:37:34;;;;;;;1;0.8;;;;;;;;;;;;;
2022/07/11 09:39:59;;;;;;;1.5;0.8;;;;;;;;;;;;;
2022/07/11 09:42:24;;;;;;;1.3;0.8;;;;;;;;;;;;;
2022/07/11 09:44:50;;;;;;;1;0.7;;;;;;;;;;;;;
2022/07/11 09:47:15;;;;;;;1.6;0.6;;;;;;;;;;;;;
2022/07/11 09:49:40;;;;;;;2.2;1.1;;;;;;;;;;;;;
2022/07/11 09:52:05;;;;;;;1.5;0.8;;;;;;;;;;;;;
2022/07/11 09:54:32;;;;;;;1.7;0.9;;;;;;;;;;;;;
2022/07/11 09:56:58;;;;;;;2.4;0.7;;;;;;;;;;;;;
2022/07/11 09:59:23;;;;;;;1.6;0.6;;;;;;;;;;;;;
2022/07/11 10:01:49;;;;;;;1.5;0.6;;;;;;;;;;;;;
2022/07/11 10:04:14;;;;;;;5.8;1.1;;;;;;;;;;;;;
2022/07/11 10:06:40;;;;;;;1.2;0.7;;;;;;;;;;;;;
2022/07/11 10:09:06;;;;;;;2.5;1;;;;;;;;;;;;;
2022/07/11 10:11:31;;;;;;;0.8;0.7;;;;;;;;;;;;;
2022/07/11 10:13:56;;;;;;;2.4;1.4;;;;;;;;;;;;;
2022/07/11 10:16:22;;;;;;;2;1;;;;;;;;;;;;;
2022/07/11 10:18:49;;;;;;;4.1;1.2;;;;;;;;;;;;;
2022/07/11 10:21:12;;;;;;;1.3;0.8;;;;;;;;;;;;;
2022/07/11 10:23:37;;;;;;;0.9;0.8;;;;;;;;;;;;;
2022/07/11 10:26:02;;;;;;;1;0.9;;;;;;;;;;;;;
2022/07/11 10:28:27;;;;;;;1.4;0.8;;;;;;;;;;;;;
2022/07/11 10:30:54;;;;;;;2.3;0.8;;;;;;;;;;;;;
2022/07/11 10:33:17;;;;;;;1.9;0.9;;;;;;;;;;;;;
2022/07/11 10:35:42;;;;;;;1.5;0.9;;;;;;;;;;;;;
2022/07/11 10:38:09;;;;;;;1.6;1;;;;;;;;;;;;;
2022/07/11 10:40:34;;;;;;;1.4;0.9;;;;;;;;;;;;;
2022/07/11 10:43:00;;;;;;;6.6;1.4;;;;;;;;;;;;;
2022/07/11 10:45:25;;;;;;;2.7;1.2;;;;;;;;;;;;;
2022/07/11 10:48:00;;;;;;;2.7;1;;;;;;;;;;;;;
2022/07/11 10:50:22;;;;;;;1.7;1;;;;;;;;;;;;;
2022/07/11 10:52:49;;;;;;;1.4;0.9;;;;;;;;;;;;;
2022/07/11 10:55:14;;;;;;;2.6;0.9;;;;;;;;;;;;;
2022/07/11 10:57:41;;;;;;;1.3;0.8;;;;;;;;;;;;;
2022/07/11 11:00:08;;;;;;;1.8;1;;;;;;;;;;;;;
2022/07/11 11:02:34;;;;;;;1.9;1.2;;;;;;;;;;;;;
2022/07/11 11:05:01;;;;;;;2.3;1;;;;;;;;;;;;;
2022/07/11 11:07:26;;;;;;;2.7;1.1;;;;;;;;;;;;;
2022/07/11 11:09:51;;;;;;;2;0.8;;;;;;;;;;;;;
2022/07/11 11:12:16;;;;;;;2.5;1;;;;;;;;;;;;;
2022/07/11 11:14:42;;;;;;;1.7;0.8;;;;;;;;;;;;;
2022/07/11 11:17:07;;;;;;;1.1;1;;;;;;;;;;;;;
2022/07/11 11:19:33;;;;;;;1.1;0.9;;;;;;;;;;;;;
2022/07/11 11:21:58;;;;;;;1.4;0.9;;;;;;;;;;;;;
2022/07/11 11:27:07;;;;;;;1.5;1;;;;;;;;;;;;;
2022/07/11 11:29:32;;;;;;;1.6;0.8;;;;;;;;;;;;;
2022/07/11 11:31:57;;;;;;;1.4;0.8;;;;;;;;;;;;;
2022/07/11 11:34:22;;;;;;;2.1;1;;;;;;;;;;;;;
2022/07/11 11:36:47;;;;;;;1.1;0.9;;;;;;;;;;;;;
2022/07/11 11:39:13;;;;;;;2.7;1.3;;;;;;;;;;;;;
2022/07/11 11:41:38;;;;;;;5.4;1.1;;;;;;;;;;;;;
2022/07/11 11:44:06;;;;;;;2.8;1.1;;;;;;;;;;;;;
2022/07/11 11:46:33;;;;;;;2.5;1.1;;;;;;;;;;;;;
2022/07/11 11:48:57;;;;;;;1.4;0.9;;;;;;;;;;;;;
2022/07/11 11:51:24;;;;;;;1.7;0.9;;;;;;;;;;;;;
2022/07/11 11:53:49;;;;;;;1.9;1;;;;;;;;;;;;;
2022/07/11 11:56:16;;;;;;;1.2;0.9;;;;;;;;;;;;;
2022/07/11 11:58:40;;;;;;;2;1.3;;;;;;;;;;;;;
2022/07/11 12:01:07;;;;;;;1.2;1.1;;;;;;;;;;;;;
2022/07/11 12:03:32;;;;;;;1.4;1.1;;;;;;;;;;;;;
2022/07/11 12:05:58;;;;;;;1.6;1;;;;;;;;;;;;;
2022/07/11 12:08:23;;;;;;;1.4;1;;;;;;;;;;;;;
2022/07/11 12:10:48;;;;;;;1.3;1.1;;;;;;;;;;;;;
2022/07/11 12:13:14;;;;;;;2;1;;;;;;;;;;;;;
2022/07/11 12:16:41;;;;;;;1.9;1.1;;;;;;;;;;;;;
2022/07/11 12:18:05;;;;;;;1.1;1;;;;;;;;;;;;;
2022/07/11 12:20:31;;;;;;;1;1;;;;;;;;;;;;;
2022/07/11 12:22:56;;;;;;;4.2;1.2;;;;;;;;;;;;;
2022/07/11 12:25:23;;;;;;;2.8;0.9;;;;;;;;;;;;;
2022/07/11 12:27:48;;;;;;;1.7;0.9;;;;;;;;;;;;;
2022/07/11 12:30:15;;;;;;;2.7;1.1;;;;;;;;;;;;;
2022/07/11 12:32:40;;;;;;;1.6;0.9;;;;;;;;;;;;;
2022/07/11 12:35:08;;;;;;;1.5;1;;;;;;;;;;;;;
2022/07/11 12:37:33;;;;;;;3.1;1.1;;;;;;;;;;;;;
2022/07/11 12:40:00;;;;;;;1.2;1.1;;;;;;;;;;;;;
2022/07/11 12:42:23;;;;;;;1;0.8;;;;;;;;;;;;;
2022/07/11 12:45:21;;;;;;;2.8;1.1;;;;;;;;;;;;;
2022/07/11 12:47:14;;;;;;;1.5;1;;;;;;;;;;;;;
2022/07/11 12:49:44;;;;;;;2.5;1.1;;;;;;;;;;;;;
2022/07/11 12:52:04;;;;;;;1.4;0.9;;;;;;;;;;;;;
2022/07/11 12:54:29;;;;;;;1.8;1;;;;;;;;;;;;;
2022/07/11 12:56:57;;;;;;;1.9;1.1;;;;;;;;;;;;;
2022/07/11 12:59:20;;;;;;;1.1;1;;;;;;;;;;;;;
2022/07/11 13:01:46;;;;;;;3.3;1.1;;;;;;;;;;;;;
2022/07/11 13:04:11;;;;;;;1.1;0.9;;;;;;;;;;;;;
2022/07/11 13:09:02;;;;;;;1.3;0.9;;;;;;;;;;;;;
2022/07/11 13:11:30;;;;;;;2.1;1.1;;;;;;;;;;;;;
2022/07/11 13:13:54;;;;;;;1.4;1.2;;;;;;;;;;;;;
2022/07/11 13:16:19;;;;;;;0.8;0.8;;;;;;;;;;;;;
2022/07/11 13:18:48;;;;;;;1.6;1;;;;;;;;;;;;;
2022/07/11 13:21:12;;;;;;;1;1;;;;;;;;;;;;;
2022/07/11 13:23:37;;;;;;;2;0.9;;;;;;;;;;;;;
2022/07/11 13:26:02;;;;;;;1.4;0.9;;;;;;;;;;;;;
2022/07/11 13:28:27;;;;;;;1.8;1.1;;;;;;;;;;;;;
2022/07/11 13:30:53;;;;;;;2.5;0.9;;;;;;;;;;;;;
2022/07/11 13:33:19;;;;;;;1.8;1;;;;;;;;;;;;;
2022/07/11 13:35:45;;;;;;;1.7;1.1;;;;;;;;;;;;;
2022/07/11 13:38:11;;;;;;;2.4;0.8;;;;;;;;;;;;;
2022/07/11 13:40:36;;;;;;;1.3;0.9;;;;;;;;;;;;;
2022/07/11 13:43:02;;;;;;;2.8;1;;;;;;;;;;;;;
2022/07/11 13:45:27;;;;;;;2.7;1;;;;;;;;;;;;;
2022/07/11 13:47:53;;;;;;;1.8;1.1;;;;;;;;;;;;;
2022/07/11 13:50:19;;;;;;;1.8;1;;;;;;;;;;;;;
2022/07/11 13:52:48;;;;;;;1.5;1;;;;;;;;;;;;;
2022/07/11 13:55:10;;;;;;;1.7;1;;;;;;;;;;;;;
2022/07/11 13:57:36;;;;;;;1.9;1.1;;;;;;;;;;;;;
2022/07/11 14:00:02;;;;;;;1.1;1;;;;;;;;;;;;;
2022/07/11 14:02:30;;;;;;;1.1;0.9;;;;;;;;;;;;;
2022/07/11 14:04:53;;;;;;;1.1;1;;;;;;;;;;;;;
2022/07/11 14:07:20;;;;;;;1.2;0.9;;;;;;;;;;;;;
2022/07/11 14:09:45;;;;;;;1;0.9;;;;;;;;;;;;;
2022/07/11 14:12:09;;;;;;;0.8;0.8;;;;;;;;;;;;;
2022/07/11 14:14:35;;;;;;;3.4;1;;;;;;;;;;;;;
2022/07/11 14:17:02;;;;;;;1.4;0.9;;;;;;;;;;;;;
2022/07/11 14:19:27;;;;;;;1.6;0.8;;;;;;;;;;;;;
2022/07/11 14:21:53;;;;;;;2.2;1;;;;;;;;;;;;;
2022/07/11 14:24:19;;;;;;;2.1;0.9;;;;;;;;;;;;;
2022/07/11 14:26:44;;;;;;;1.2;0.8;;;;;;;;;;;;;
2022/07/11 14:29:10;;;;;;;1.4;0.9;;;;;;;;;;;;;
2022/07/11 14:31:35;;;;;;;1.1;1;;;;;;;;;;;;;
2022/07/11 14:34:02;;;;;;;1.8;1;;;;;;;;;;;;;
2022/07/11 14:36:26;;;;;;;2.1;1;;;;;;;;;;;;;
2022/07/11 14:38:53;;;;;;;1.2;0.8;;;;;;;;;;;;;
2022/07/11 14:41:17;;;;;;;1.8;1;;;;;;;;;;;;;
2022/07/11 14:43:45;;;;;;;2.7;1.2;;;;;;;;;;;;;
2022/07/11 14:46:09;;;;;;;1.2;1.1;;;;;;;;;;;;;
2022/07/11 14:48:37;;;;;;;1.2;0.9;;;;;;;;;;;;;
2022/07/11 14:51:01;;;;;;;2;1;;;;;;;;;;;;;
2022/07/11 14:53:27;;;;;;;1.7;0.9;;;;;;;;;;;;;
2022/07/11 14:55:52;;;;;;;1.8;0.9;;;;;;;;;;;;;
2022/07/11 14:58:17;;;;;;;0.7;0.7;;;;;;;;;;;;;
2022/07/11 15:00:44;;;;;;;1;1;;;;;;;;;;;;;
2022/07/11 15:05:33;;;;;;;1.4;0.7;;;;;;;;;;;;;
2022/07/11 15:12:50;;;;;;;1.7;0.7;;;;;;;;;;;;;
2022/07/11 15:15:17;;;;;;;1;0.7;;;;;;;;;;;;;
2022/07/11 15:17:42;;;;;;;1.9;1;;;;;;;;;;;;;
2022/07/11 15:20:08;;;;;;;2.8;0.9;;;;;;;;;;;;;
2022/07/11 15:22:34;;;;;;;1.1;0.9;;;;;;;;;;;;;
2022/07/11 15:24:59;;;;;;;1.4;0.8;;;;;;;;;;;;;
2022/07/11 15:27:24;;;;;;;2.3;0.9;;;;;;;;;;;;;
2022/07/11 15:29:49;;;;;;;2.3;0.9;;;;;;;;;;;;;
2022/07/11 15:32:15;;;;;;;1.2;0.7;;;;;;;;;;;;;
2022/07/11 15:34:41;;;;;;;0.6;0.6;;;;;;;;;;;;;
2022/07/11 15:37:06;;;;;;;1.5;0.7;;;;;;;;;;;;;
2022/07/11 15:39:32;;;;;;;2.4;1;;;;;;;;;;;;;
2022/07/11 15:41:57;;;;;;;1.2;0.8;;;;;;;;;;;;;
2022/07/11 15:44:22;;;;;;;0.6;0.6;;;;;;;;;;;;;
2022/07/11 15:46:48;;;;;;;0.7;0.7;;;;;;;;;;;;;
2022/07/11 15:49:16;;;;;;;1.5;0.6;;;;;;;;;;;;;
2022/07/11 15:51:41;;;;;;;2.1;0.7;;;;;;;;;;;;;
2022/07/11 15:54:06;;;;;;;1.3;0.6;;;;;;;;;;;;;
2022/07/11 15:56:31;;;;;;;0.7;0.6;;;;;;;;;;;;;
2022/07/11 15:58:57;;;;;;;1.8;0.6;;;;;;;;;;;;;
2022/07/11 16:01:22;;;;;;;0.9;0.7;;;;;;;;;;;;;
2022/07/11 16:03:47;;;;;;;2;0.7;;;;;;;;;;;;;
2022/07/11 16:06:12;;;;;;;1.3;0.6;;;;;;;;;;;;;
2022/07/11 16:08:37;;;;;;;1.3;0.6;;;;;;;;;;;;;
2022/07/11 16:11:02;;;;;;;0.7;0.7;;;;;;;;;;;;;
2022/07/11 16:13:27;;;;;;;3.6;0.6;;;;;;;;;;;;;
2022/07/11 16:15:56;;;;;;;0.7;0.7;;;;;;;;;;;;;
2022/07/11 16:18:21;;;;;;;0.7;0.6;;;;;;;;;;;;;
2022/07/11 16:20:57;;;;;;;2.5;0.8;;;;;;;;;;;;;
2022/07/11 16:23:22;;;;;;;0.8;0.7;;;;;;;;;;;;;
2022/07/11 16:25:47;;;;;;;0.5;0.5;;;;;;;;;;;;;
2022/07/11 16:28:12;;;;;;;3.8;0.8;;;;;;;;;;;;;
2022/07/11 16:30:44;;;;;;;3.4;0.7;;;;;;;;;;;;;
2022/07/11 16:33:10;;;;;;;0.4;0.4;;;;;;;;;;;;;
2022/07/11 16:35:35;;;;;;;0.5;0.5;;;;;;;;;;;;;
2022/07/11 16:38:03;;;;;;;0.6;0.6;;;;;;;;;;;;;
2022/07/11 16:45:18;;;;;;;1;0.5;;;;;;;;;;;;;
2022/07/11 16:47:48;;;;;;;1;0.5;;;;;;;;;;;;;
2022/07/11 16:50:13;;;;;;;1.5;0.9;;;;;;;;;;;;;
2022/07/11 16:52:40;;;;;;;1.1;0.9;;;;;;;;;;;;;
2022/07/11 16:55:08;;;;;;;0.5;0.5;;;;;;;;;;;;;
2022/07/11 16:57:30;;;;;;;0.5;0.5;;;;;;;;;;;;;
2022/07/11 16:59:59;;;;;;;0.8;0.6;;;;;;;;;;;;;
2022/07/11 17:02:23;;;;;;;1;0.5;;;;;;;;;;;;;
2022/07/11 17:04:50;;;;;;;0.5;0.5;;;;;;;;;;;;;
2022/07/11 17:07:14;;;;;;;1.4;0.6;;;;;;;;;;;;;
2022/07/11 17:09:39;;;;;;;0.9;0.5;;;;;;;;;;;;;
2022/07/11 17:12:05;;;;;;;0.5;0.5;;;;;;;;;;;;;
2022/07/11 17:14:31;;;;;;;0.9;0.5;;;;;;;;;;;;;
2022/07/11 17:16:56;;;;;;;0.3;0.3;;;;;;;;;;;;;
2022/07/11 17:19:23;;;;;;;0.8;0.7;;;;;;;;;;;;;
2022/07/11 17:21:47;;;;;;;0.8;0.4;;;;;;;;;;;;;
2022/07/11 17:24:14;;;;;;;0.7;0.4;;;;;;;;;;;;;
2022/07/11 17:26:39;;;;;;;0.8;0.6;;;;;;;;;;;;;
2022/07/11 17:29:05;;;;;;;0.5;0.5;;;;;;;;;;;;;
2022/07/11 17:31:30;;;;;;;0.6;0.6;;;;;;;;;;;;;
2022/07/11 17:33:56;;;;;;;1.3;0.4;;;;;;;;;;;;;
2022/07/11 17:36:21;;;;;;;0.8;0.5;;;;;;;;;;;;;
2022/07/11 17:38:49;;;;;;;0.6;0.4;;;;;;;;;;;;;
2022/07/11 17:41:12;;;;;;;1;0.6;;;;;;;;;;;;;
2022/07/11 17:43:40;;;;;;;0.6;0.5;;;;;;;;;;;;;
2022/07/11 17:46:05;;;;;;;1.5;0.6;;;;;;;;;;;;;
2022/07/11 17:48:33;;;;;;;0.8;0.5;;;;;;;;;;;;;
2022/07/11 17:50:57;;;;;;;0.9;0.8;;;;;;;;;;;;;
2022/07/11 17:53:23;;;;;;;1.5;0.6;;;;;;;;;;;;;
2022/07/11 17:55:48;;;;;;;0.5;0.5;;;;;;;;;;;;;
2022/07/11 17:58:13;;;;;;;0.6;0.5;;;;;;;;;;;;;
2022/07/11 18:00:39;;;;;;;0.8;0.5;;;;;;;;;;;;;
2022/07/11 18:03:07;;;;;;;0.4;0.4;;;;;;;;;;;;;
2022/07/11 18:05:34;;;;;;;1;0.5;;;;;;;;;;;;;
2022/07/11 18:07:59;;;;;;;0.5;0.5;;;;;;;;;;;;;
2022/07/11 18:10:24;;;;;;;1.2;0.7;;;;;;;;;;;;;
2022/07/11 18:12:50;;;;;;;0.5;0.5;;;;;;;;;;;;;
2022/07/11 18:15:15;;;;;;;1.3;0.5;;;;;;;;;;;;;
2022/07/11 18:17:42;;;;;;;0.6;0.5;;;;;;;;;;;;;
2022/07/11 18:20:07;;;;;;;0.4;0.4;;;;;;;;;;;;;
2022/07/11 18:22:32;;;;;;;0.5;0.5;;;;;;;;;;;;;
2022/07/11 18:24:57;;;;;;;0.5;0.5;;;;;;;;;;;;;
2022/07/11 18:27:26;;;;;;;0.7;0.6;;;;;;;;;;;;;
2022/07/11 18:29:51;;;;;;;0.6;0.6;;;;;;;;;;;;;
2022/07/11 18:32:16;;;;;;;0.4;0.4;;;;;;;;;;;;;
2022/07/11 18:34:42;;;;;;;0.6;0.6;;;;;;;;;;;;;
2022/07/11 18:37:08;;;;;;;0.5;0.5;;;;;;;;;;;;;
2022/07/11 18:41:58;;;;;;;1;0.7;;;;;;;;;;;;;
2022/07/11 18:44:25;;;;;;;1.3;0.5;;;;;;;;;;;;;
2022/07/11 18:46:50;;;;;;;0.6;0.6;;;;;;;;;;;;;
2022/07/11 18:49:15;;;;;;;0.5;0.5;;;;;;;;;;;;;
2022/07/11 18:51:41;;;;;;;1;0.4;;;;;;;;;;;;;
2022/07/11 18:54:08;;;;;;;0.8;0.7;;;;;;;;;;;;;
2022/07/11 18:56:33;;;;;;;0.7;0.7;;;;;;;;;;;;;
2022/07/11 18:58:58;;;;;;;0.7;0.7;;;;;;;;;;;;;
2022/07/11 19:01:23;;;;;;;0.9;0.6;;;;;;;;;;;;;
2022/07/11 19:03:50;;;;;;;1;0.8;;;;;;;;;;;;;
2022/07/11 19:06:15;;;;;;;0.7;0.7;;;;;;;;;;;;;
2022/07/11 19:08:41;;;;;;;1.1;0.7;;;;;;;;;;;;;
2022/07/11 19:11:06;;;;;;;1.6;0.9;;;;;;;;;;;;;
2022/07/11 19:13:32;;;;;;;1.4;0.8;;;;;;;;;;;;;
2022/07/11 19:15:57;;;;;;;0.8;0.6;;;;;;;;;;;;;
2022/07/11 19:18:23;;;;;;;1.1;0.7;;;;;;;;;;;;;
2022/07/11 19:20:48;;;;;;;1.8;0.8;;;;;;;;;;;;;
2022/07/11 19:23:14;;;;;;;1.2;0.7;;;;;;;;;;;;;
2022/07/11 19:25:40;;;;;;;1.4;1;;;;;;;;;;;;;
2022/07/11 19:28:05;;;;;;;3.3;0.9;;;;;;;;;;;;;
2022/07/11 19:30:31;;;;;;;0.8;0.8;;;;;;;;;;;;;
2022/07/11 19:32:57;;;;;;;1;0.9;;;;;;;;;;;;;
2022/07/11 19:35:23;;;;;;;0.9;0.8;;;;;;;;;;;;;
2022/07/11 19:37:48;;;;;;;1.3;0.7;;;;;;;;;;;;;
2022/07/11 19:40:14;;;;;;;1.2;0.9;;;;;;;;;;;;;
2022/07/11 19:42:40;;;;;;;0.9;0.8;;;;;;;;;;;;;
2022/07/11 19:45:06;;;;;;;1;0.9;;;;;;;;;;;;;
2022/07/11 19:47:32;;;;;;;1;0.9;;;;;;;;;;;;;
2022/07/11 19:49:56;;;;;;;0.7;0.7;;;;;;;;;;;;;
2022/07/11 19:52:22;;;;;;;1;0.9;;;;;;;;;;;;;
2022/07/11 19:57:24;;;;;;;2.3;1;;;;;;;;;;;;;
2022/07/11 19:59:38;;;;;;;1.6;1;;;;;;;;;;;;;
2022/07/11 20:02:03;;;;;;;0.9;0.8;;;;;;;;;;;;;
2022/07/11 20:04:31;;;;;;;0.8;0.8;;;;;;;;;;;;;
2022/07/11 20:06:56;;;;;;;1;0.9;;;;;;;;;;;;;
2022/07/11 20:09:21;;;;;;;0.7;0.7;;;;;;;;;;;;;
2022/07/11 20:11:46;;;;;;;0.9;0.9;;;;;;;;;;;;;
2022/07/11 20:14:12;;;;;;;1;0.9;;;;;;;;;;;;;
2022/07/11 20:16:37;;;;;;;1.1;0.8;;;;;;;;;;;;;
2022/07/11 20:19:04;;;;;;;1.3;0.8;;;;;;;;;;;;;
2022/07/11 20:21:28;;;;;;;1;0.8;;;;;;;;;;;;;
2022/07/11 20:23:57;;;;;;;1.5;1;;;;;;;;;;;;;
2022/07/11 20:26:20;;;;;;;1.3;1;;;;;;;;;;;;;
2022/07/11 20:28:45;;;;;;;1;0.8;;;;;;;;;;;;;
2022/07/11 20:31:10;;;;;;;1;0.9;;;;;;;;;;;;;
2022/07/11 20:33:36;;;;;;;1.8;1;;;;;;;;;;;;;
2022/07/11 20:36:02;;;;;;;0.9;0.7;;;;;;;;;;;;;
2022/07/11 20:38:27;;;;;;;1.2;1.1;;;;;;;;;;;;;
2022/07/11 20:40:55;;;;;;;1.5;1;;;;;;;;;;;;;
2022/07/11 20:43:17;;;;;;;1.9;1;;;;;;;;;;;;;
2022/07/11 20:45:43;;;;;;;1.5;1.1;;;;;;;;;;;;;
2022/07/11 20:48:08;;;;;;;1.8;1.3;;;;;;;;;;;;;
2022/07/11 20:50:34;;;;;;;1.1;1;;;;;;;;;;;;;
2022/07/11 20:52:59;;;;;;;1.5;1.1;;;;;;;;;;;;;
2022/07/11 20:55:25;;;;;;;1.7;0.9;;;;;;;;;;;;;
2022/07/11 20:57:51;;;;;;;1.4;0.9;;;;;;;;;;;;;
2022/07/11 21:00:18;;;;;;;0.8;0.7;;;;;;;;;;;;;
2022/07/11 21:02:42;;;;;;;2.2;1;;;;;;;;;;;;;
2022/07/11 21:05:09;;;;;;;0.9;0.8;;;;;;;;;;;;;
2022/07/11 21:07:34;;;;;;;1.1;1;;;;;;;;;;;;;
2022/07/11 21:10:00;;;;;;;1.2;1;;;;;;;;;;;;;
2022/07/11 21:12:25;;;;;;;1.7;0.9;;;;;;;;;;;;;